Time;durP1;ratioP1;P1;durP2;ratioP2;P2;SDS_P1;SDS_P2;PMS_P1;PMS_P2;Temp;Humidity;BMP_temperature;BMP_pressure;BME280_temperature;BME280_humidity;BME280_pressure;Samples;Min_cycle;Max_cycle;Signal;HPM_P1;HPM_P2
2023/08/11 00:02:01;;;;;;;5.55;4.70;;;;;;;17.05;100.00;102091.38;4980268;28;20608;-74
2023/08/11 00:04:28;;;;;;;5.90;4.47;;;;;;;17.05;100.00;102091.38;4981562;28;20054;-76
2023/08/11 00:06:57;;;;;;;4.80;4.15;;;;;;;17.06;100.00;102085.19;4969383;28;20495;-75
2023/08/11 00:09:26;;;;;;;7.82;4.90;;;;;;;17.05;100.00;102081.63;4970638;28;20047;-75
2023/08/11 00:11:55;;;;;;;5.85;4.63;;;;;;;17.05;100.00;102078.97;4972595;28;20050;-75
2023/08/11 00:14:22;;;;;;;6.25;4.85;;;;;;;17.05;100.00;102089.63;4970966;28;20059;-75
2023/08/11 00:16:49;;;;;;;5.00;4.53;;;;;;;17.04;100.00;102079.84;4944521;28;20427;-74
2023/08/11 00:19:17;;;;;;;6.63;4.65;;;;;;;17.03;100.00;102075.44;5003399;28;20112;-74
2023/08/11 00:21:44;;;;;;;6.65;4.70;;;;;;;17.03;100.00;102082.50;4981340;28;20054;-75
2023/08/11 00:24:11;;;;;;;5.70;4.38;;;;;;;17.02;100.00;102076.31;4969541;28;20046;-74
2023/08/11 00:26:39;;;;;;;4.82;4.28;;;;;;;17.03;100.00;102083.41;4972221;28;20058;-74
2023/08/11 00:29:06;;;;;;;4.88;4.32;;;;;;;17.04;100.00;102082.50;4971810;28;20047;-76
2023/08/11 00:31:35;;;;;;;4.80;4.40;;;;;;;17.02;100.00;102078.97;4930073;28;20555;-74
2023/08/11 00:34:03;;;;;;;6.82;4.55;;;;;;;17.02;100.00;102084.31;4972028;28;20058;-74
2023/08/11 00:36:30;;;;;;;5.22;4.13;;;;;;;17.02;100.00;102078.97;4960194;28;21206;-75
2023/08/11 00:39:00;;;;;;;4.75;4.32;;;;;;;17.01;100.00;102078.97;4957180;28;20719;-75
2023/08/11 00:41:27;;;;;;;5.10;4.43;;;;;;;17.01;100.00;102071.84;4970829;28;20046;-74
2023/08/11 00:43:55;;;;;;;4.97;4.47;;;;;;;17.01;100.00;102078.97;4972868;28;20049;-75
2023/08/11 00:46:24;;;;;;;5.05;4.50;;;;;;;16.99;100.00;102078.97;4930928;28;20094;-74
2023/08/11 00:48:51;;;;;;;6.78;5.03;;;;;;;16.99;100.00;102070.97;5003889;28;20066;-76
2023/08/11 00:51:22;;;;;;;4.72;4.13;;;;;;;16.97;100.00;102078.09;4970146;28;20042;-74
2023/08/11 00:53:51;;;;;;;5.18;3.67;;;;;;;16.98;100.00;102079.00;4967292;28;20050;-74
2023/08/11 00:56:22;;;;;;;5.35;4.28;;;;;;;16.95;100.00;102075.44;4968612;28;20507;-75
2023/08/11 00:58:51;;;;;;;4.72;3.75;;;;;;;16.94;100.00;102078.13;4971669;28;20419;-75
2023/08/11 01:01:18;;;;;;;4.55;4.13;;;;;;;16.91;100.00;102073.69;4926487;28;20047;-74
2023/08/11 01:03:47;;;;;;;5.38;4.85;;;;;;;16.88;100.00;102073.72;4956278;28;20043;-74
2023/08/11 01:06:34;;;;;;;6.22;4.45;;;;;;;16.85;100.00;102075.50;4986999;28;20050;-75
2023/08/11 01:09:12;;;;;;;6.03;4.90;;;;;;;16.81;100.00;102068.38;4967707;28;20503;-75
2023/08/11 01:11:58;;;;;;;4.95;4.55;;;;;;;16.77;100.00;102064.84;4976188;28;20054;-74
2023/08/11 01:15:02;;;;;;;6.57;4.35;;;;;;;16.72;100.00;102063.97;4969568;28;20038;-75
2023/08/11 01:17:32;;;;;;;5.53;4.10;;;;;;;16.66;100.00;102059.53;4923351;28;20054;-75
2023/08/11 01:20:01;;;;;;;4.30;3.90;;;;;;;16.61;100.00;102053.34;4972049;28;20062;-74
2023/08/11 01:22:34;;;;;;;14.25;4.00;;;;;;;16.55;100.00;102059.56;4971280;28;20574;-74
2023/08/11 01:25:01;;;;;;;5.47;4.45;;;;;;;16.50;100.00;102057.78;4960709;28;20068;-76
2023/08/11 01:27:30;;;;;;;5.53;4.78;;;;;;;16.45;100.00;102059.59;5003170;28;20046;-74
2023/08/11 01:29:57;;;;;;;7.03;4.43;;;;;;;16.38;100.00;102048.94;4988034;28;20057;-74
2023/08/11 01:32:24;;;;;;;5.63;4.25;;;;;;;16.32;100.00;102042.75;4948056;28;20050;-74
2023/08/11 01:34:52;;;;;;;5.45;4.60;;;;;;;16.26;100.00;102051.63;4985510;28;20045;-74
2023/08/11 01:37:19;;;;;;;6.97;4.43;;;;;;;16.22;100.00;102049.88;4970088;28;20047;-76
2023/08/11 01:39:47;;;;;;;7.50;4.22;;;;;;;16.16;100.00;102047.19;4967903;28;20059;-75
2023/08/11 01:42:15;;;;;;;5.43;4.28;;;;;;;16.12;100.00;102040.13;4954948;28;20081;-76
2023/08/11 01:44:43;;;;;;;4.47;4.03;;;;;;;16.08;100.00;102043.69;4991102;28;20045;-74
2023/08/11 01:47:11;;;;;;;4.35;3.95;;;;;;;16.03;100.00;102043.69;4945795;28;20053;-76
2023/08/11 01:49:39;;;;;;;6.35;4.05;;;;;;;15.98;100.00;102050.78;4977603;28;20046;-74
2023/08/11 01:52:08;;;;;;;5.20;4.05;;;;;;;15.95;100.00;102042.78;4968888;28;20061;-74
2023/08/11 01:54:35;;;;;;;6.20;4.40;;;;;;;15.91;100.00;102035.69;4960213;28;20054;-74
2023/08/11 01:57:05;;;;;;;8.73;4.45;;;;;;;15.87;100.00;102025.97;4955742;28;20046;-74
2023/08/11 01:59:32;;;;;;;6.68;4.80;;;;;;;15.83;100.00;102030.38;4970491;28;20047;-75
2023/08/11 02:02:00;;;;;;;8.32;4.93;;;;;;;15.81;100.00;102028.63;4972562;28;20061;-74
2023/08/11 02:04:28;;;;;;;7.30;4.88;;;;;;;15.77;100.00;102028.63;4936003;28;20057;-74
2023/08/11 02:06:55;;;;;;;5.65;4.88;;;;;;;15.75;100.00;102032.16;4976455;28;20506;-76
2023/08/11 02:09:23;;;;;;;7.68;4.97;;;;;;;15.72;100.00;102034.78;4958390;28;20130;-75
2023/08/11 02:11:50;;;;;;;8.98;5.35;;;;;;;15.69;100.00;102029.44;4976186;28;20050;-74
2023/08/11 02:14:17;;;;;;;5.57;5.07;;;;;;;15.67;100.00;102031.22;4968498;28;20054;-75
2023/08/11 02:16:45;;;;;;;6.65;5.40;;;;;;;15.64;100.00;102037.44;4988422;28;20046;-74
2023/08/11 02:19:12;;;;;;;6.40;5.88;;;;;;;15.62;100.00;102038.31;4930325;28;20518;-75
2023/08/11 02:21:39;;;;;;;6.03;5.20;;;;;;;15.59;100.00;102037.44;4976686;28;20522;-75
2023/08/11 02:24:07;;;;;;;6.57;5.32;;;;;;;15.57;100.00;102040.94;4969516;28;20050;-75
2023/08/11 02:26:34;;;;;;;8.20;5.47;;;;;;;15.54;100.00;102036.53;4970780;28;20057;-74
2023/08/11 02:29:03;;;;;;;6.32;5.22;;;;;;;15.52;100.00;102033.00;4987886;28;20046;-75
2023/08/11 02:31:32;;;;;;;9.02;5.32;;;;;;;15.50;100.00;102034.75;4970136;28;20046;-74
2023/08/11 02:34:03;;;;;;;5.82;5.32;;;;;;;15.47;100.00;102021.47;4959043;28;20042;-76
2023/08/11 02:36:31;;;;;;;5.78;5.28;;;;;;;15.44;100.00;102023.22;4945887;28;20042;-74
2023/08/11 02:38:58;;;;;;;6.88;5.63;;;;;;;15.41;100.00;102021.47;4970416;28;20504;-74
2023/08/11 02:41:25;;;;;;;6.75;5.57;;;;;;;15.39;100.00;102015.25;4965642;28;20058;-75
2023/08/11 02:43:53;;;;;;;7.45;5.53;;;;;;;15.35;100.00;102010.84;4970125;28;20049;-74
2023/08/11 02:46:20;;;;;;;6.80;5.82;;;;;;;15.34;100.00;102009.03;4967465;28;20050;-75
2023/08/11 02:48:47;;;;;;;6.68;5.68;;;;;;;15.32;100.00;102008.16;4954251;28;20061;-75
2023/08/11 02:51:16;;;;;;;10.32;6.28;;;;;;;15.29;100.00;102001.09;4940482;28;20125;-74
2023/08/11 02:53:43;;;;;;;6.78;6.05;;;;;;;15.27;100.00;102007.25;4971831;28;20061;-75
2023/08/11 02:56:15;;;;;;;10.52;6.97;;;;;;;15.26;100.00;102008.16;4959556;28;20053;-74
2023/08/11 02:58:42;;;;;;;7.15;6.20;;;;;;;15.24;100.00;102008.16;4971204;28;20519;-75
2023/08/11 03:01:10;;;;;;;7.47;6.60;;;;;;;15.22;100.00;102012.56;4968680;28;20538;-75
2023/08/11 03:03:37;;;;;;;6.43;5.82;;;;;;;15.18;100.00;102011.66;4971278;28;20061;-75
2023/08/11 03:06:05;;;;;;;7.00;5.68;;;;;;;15.17;100.00;101996.59;4930736;28;20600;-74
2023/08/11 03:08:32;;;;;;;6.88;6.28;;;;;;;15.15;100.00;102009.00;4968765;28;20050;-74
2023/08/11 03:11:00;;;;;;;8.60;6.00;;;;;;;15.14;100.00;102015.22;4969393;28;20038;-75
2023/08/11 03:13:33;;;;;;;10.27;6.30;;;;;;;15.13;100.00;102005.44;4948655;28;20050;-75
2023/08/11 03:16:00;;;;;;;8.45;7.28;;;;;;;15.11;100.00;102003.69;4970370;28;20484;-75
2023/08/11 03:18:29;;;;;;;7.35;6.43;;;;;;;15.09;100.00;102001.03;4971691;28;20053;-75
2023/08/11 03:20:59;;;;;;;7.50;6.80;;;;;;;15.08;100.00;102007.19;4986196;28;20057;-75
2023/08/11 03:23:45;;;;;;;10.65;7.47;;;;;;;15.06;100.00;102005.44;5006547;28;20488;-75
2023/08/11 03:26:13;;;;;;;6.60;6.00;;;;;;;15.04;100.00;102000.13;4997626;28;20046;-75
2023/08/11 03:28:41;;;;;;;8.32;7.50;;;;;;;15.04;100.00;101999.22;4974682;28;20053;-75
2023/08/11 03:31:09;;;;;;;9.43;8.48;;;;;;;15.02;100.00;101991.25;4973543;28;20050;-74
2023/08/11 03:33:40;;;;;;;10.68;9.20;;;;;;;15.00;100.00;101983.28;4991251;28;20046;-74
2023/08/11 03:36:11;;;;;;;13.23;10.93;;;;;;;14.98;100.00;101981.53;5003938;28;20472;-74
2023/08/11 03:38:39;;;;;;;12.30;10.00;;;;;;;14.98;100.00;101993.03;4935805;28;20496;-75
2023/08/11 03:41:06;;;;;;;12.43;11.07;;;;;;;14.98;100.00;102002.75;4985794;28;20053;-74
2023/08/11 03:43:33;;;;;;;14.90;10.93;;;;;;;14.97;100.00;101998.31;5001894;28;20258;-74
2023/08/11 03:46:01;;;;;;;12.57;11.38;;;;;;;14.97;100.00;101996.56;4980488;28;20061;-74
2023/08/11 03:48:28;;;;;;;14.30;11.00;;;;;;;14.96;100.00;102012.47;4964909;28;20548;-74
2023/08/11 03:51:01;;;;;;;11.80;10.60;;;;;;;14.94;100.00;102007.16;5002591;28;20058;-74
2023/08/11 03:53:30;;;;;;;12.63;10.75;;;;;;;14.96;100.00;102012.47;4939859;28;20045;-75
2023/08/11 03:55:57;;;;;;;14.30;11.57;;;;;;;14.94;100.00;102006.28;4994466;28;20065;-74
2023/08/11 03:58:28;;;;;;;13.05;10.75;;;;;;;14.92;100.00;102011.59;4972591;28;20049;-75
2023/08/11 04:00:55;;;;;;;15.57;12.23;;;;;;;14.91;100.00;102012.44;5006149;28;20042;-75
2023/08/11 04:03:27;;;;;;;18.55;13.88;;;;;;;14.91;100.00;102016.88;4972605;28;20041;-74
2023/08/11 04:05:55;;;;;;;16.77;14.45;;;;;;;14.90;100.00;102015.13;4973219;28;20046;-75
2023/08/11 04:08:23;;;;;;;15.25;12.98;;;;;;;14.90;100.00;102021.31;4930113;28;20126;-74
2023/08/11 04:10:51;;;;;;;14.25;12.48;;;;;;;14.91;100.00;102016.88;4989506;28;20037;-74
2023/08/11 04:13:18;;;;;;;14.00;11.80;;;;;;;14.91;100.00;102019.53;4967838;28;20081;-74
2023/08/11 04:15:47;;;;;;;19.45;12.38;;;;;;;14.90;100.00;102010.69;4990312;28;20042;-75
2023/08/11 04:18:19;;;;;;;15.13;11.10;;;;;;;14.90;100.00;102001.84;4969913;28;20061;-75
2023/08/11 04:20:47;;;;;;;18.10;12.55;;;;;;;14.90;100.00;102007.16;4990515;28;20049;-74
2023/08/11 04:23:14;;;;;;;12.80;10.90;;;;;;;14.90;100.00;101994.78;4921422;28;20042;-75
2023/08/11 04:25:43;;;;;;;14.95;11.13;;;;;;;14.90;100.00;101994.78;4970356;28;20542;-75
2023/08/11 04:28:10;;;;;;;12.60;11.30;;;;;;;14.91;100.00;102000.97;4962262;28;20054;-75
2023/08/11 04:30:38;;;;;;;12.98;10.93;;;;;;;14.92;100.00;102008.06;4969764;28;20054;-75
2023/08/11 04:33:07;;;;;;;12.07;10.77;;;;;;;14.93;100.00;102007.16;4971023;28;20415;-75
2023/08/11 04:35:36;;;;;;;13.95;11.60;;;;;;;14.94;100.00;101998.31;4973068;28;20062;-74
2023/08/11 04:38:05;;;;;;;13.43;12.02;;;;;;;14.96;100.00;101999.22;4956396;28;20046;-74
2023/08/11 04:40:34;;;;;;;15.10;11.40;;;;;;;14.97;100.00;102006.28;4968426;28;20061;-74
2023/08/11 04:43:04;;;;;;;12.95;11.52;;;;;;;14.99;100.00;102001.88;4954100;28;20059;-75
2023/08/11 04:45:36;;;;;;;13.50;11.65;;;;;;;15.02;100.00;102004.53;4947610;28;20058;-76
2023/08/11 04:48:04;;;;;;;13.77;10.32;;;;;;;15.05;100.00;102001.91;4972765;28;20419;-74
2023/08/11 04:50:34;;;;;;;11.48;9.73;;;;;;;15.07;100.00;101993.94;4955003;28;20813;-74
2023/08/11 04:53:01;;;;;;;16.17;10.88;;;;;;;15.11;100.00;101985.09;4963147;28;20047;-74
2023/08/11 04:55:31;;;;;;;11.63;10.43;;;;;;;15.26;100.00;101986.91;4944796;28;20062;-76
2023/08/11 04:58:00;;;;;;;12.80;9.57;;;;;;;15.77;100.00;101993.19;4979220;28;20062;-75
2023/08/11 05:00:29;;;;;;;9.48;8.45;;;;;;;16.02;100.00;101991.38;4962896;28;20546;-74
2023/08/11 05:02:57;;;;;;;9.85;8.85;;;;;;;16.22;100.00;101982.47;4973798;28;20046;-74
2023/08/11 05:05:26;;;;;;;8.68;7.70;;;;;;;16.49;100.00;101981.53;4969814;28;20126;-74
2023/08/11 05:07:54;;;;;;;8.68;7.60;;;;;;;16.76;100.00;101983.19;4973120;28;20046;-75
2023/08/11 05:10:21;;;;;;;11.60;7.63;;;;;;;17.04;100.00;101994.63;4929512;28;20050;-75
2023/08/11 05:12:49;;;;;;;7.50;6.57;;;;;;;17.20;100.00;101989.22;4958609;28;20054;-74
2023/08/11 05:15:16;;;;;;;9.63;7.55;;;;;;;17.30;100.00;101980.28;4962740;28;20081;-74
2023/08/11 05:17:44;;;;;;;7.80;6.97;;;;;;;17.36;100.00;101982.91;4989483;28;20050;-74
2023/08/11 05:20:14;;;;;;;9.50;7.00;;;;;;;17.49;100.00;101992.56;4970743;28;20050;-74
2023/08/11 05:22:43;;;;;;;9.25;7.15;;;;;;;17.64;100.00;101988.91;4957112;28;20054;-74
2023/08/11 05:25:11;;;;;;;7.40;6.65;;;;;;;18.08;100.00;101982.31;4959478;28;20527;-75
2023/08/11 05:27:39;;;;;;;6.63;6.03;;;;;;;18.57;100.00;101980.91;4992883;28;20061;-75
2023/08/11 05:30:08;;;;;;;6.95;6.25;;;;;;;18.80;100.00;101983.31;4989079;28;20050;-75
2023/08/11 05:32:35;;;;;;;6.53;5.93;;;;;;;19.06;100.00;101974.06;4969770;28;20408;-75
2023/08/11 05:35:03;;;;;;;10.80;5.57;;;;;;;19.01;100.00;101974.13;4972490;28;20065;-75
2023/08/11 05:37:30;;;;;;;9.88;6.13;;;;;;;18.89;100.00;101976.97;4970358;28;20046;-75
2023/08/11 05:39:58;;;;;;;10.60;7.05;;;;;;;18.76;100.00;101986.03;4973022;28;20041;-75
2023/08/11 05:42:26;;;;;;;8.55;6.65;;;;;;;18.59;100.00;101987.09;4954504;28;20045;-75
2023/08/11 05:44:53;;;;;;;6.82;6.03;;;;;;;18.49;100.00;101988.13;4977614;28;20042;-75
2023/08/11 05:47:20;;;;;;;9.98;6.35;;;;;;;18.39;100.00;101991.78;4957056;28;20068;-75
2023/08/11 05:49:48;;;;;;;7.32;6.53;;;;;;;18.33;100.00;101979.38;4968650;28;20051;-74
2023/08/11 05:52:15;;;;;;;6.88;5.70;;;;;;;18.52;100.00;101980.06;4967720;28;20050;-74
2023/08/11 05:54:42;;;;;;;9.43;5.95;;;;;;;18.83;100.00;101974.41;4970319;28;20054;-75
2023/08/11 05:57:10;;;;;;;10.35;6.47;;;;;;;18.87;100.00;101968.09;4935227;28;20555;-75
2023/08/11 05:59:37;;;;;;;7.15;5.60;;;;;;;18.87;100.00;101970.78;4973230;28;20051;-75
2023/08/11 06:02:05;;;;;;;7.10;5.55;;;;;;;19.05;100.00;101970.53;4963538;28;20408;-74
2023/08/11 06:04:32;;;;;;;7.53;5.53;;;;;;;19.41;100.00;101970.88;4945553;28;20054;-75
2023/08/11 06:07:00;;;;;;;7.60;5.43;;;;;;;19.82;100.00;101969.31;4984708;28;20046;-75
2023/08/11 06:09:27;;;;;;;7.40;5.35;;;;;;;20.25;100.00;101970.34;4983284;28;20035;-76
2023/08/11 06:11:55;;;;;;;7.47;5.63;;;;;;;20.53;100.00;101972.44;4984939;28;20053;-75
2023/08/11 06:14:22;;;;;;;10.13;4.65;;;;;;;20.54;100.00;101968.88;4927749;28;20039;-74
2023/08/11 06:16:49;;;;;;;8.20;5.22;;;;;;;20.50;100.00;101967.16;4968089;28;20688;-75
2023/08/11 06:19:17;;;;;;;8.50;4.88;;;;;;;20.42;100.00;101959.28;4937484;28;20051;-75
2023/08/11 06:21:45;;;;;;;7.45;5.45;;;;;;;20.32;100.00;101965.72;4968327;28;20054;-75
2023/08/11 06:24:12;;;;;;;5.70;4.70;;;;;;;20.20;100.00;101981.09;4965886;28;20043;-74
2023/08/11 06:26:40;;;;;;;6.38;5.28;;;;;;;20.09;100.00;101966.16;4967581;28;20061;-75
2023/08/11 06:29:08;;;;;;;5.93;4.82;;;;;;;20.00;100.00;101967.22;4938915;28;20050;-75
2023/08/11 06:31:35;;;;;;;6.70;4.63;;;;;;;19.93;100.00;101973.59;4966979;28;20054;-75
2023/08/11 06:34:03;;;;;;;6.00;4.93;;;;;;;19.86;100.00;101973.69;4956503;28;20050;-74
2023/08/11 06:36:30;;;;;;;6.20;4.45;;;;;;;19.86;100.00;101968.34;4949765;28;20046;-75
2023/08/11 06:38:58;;;;;;;6.50;4.47;;;;;;;19.91;100.00;101972.75;4966783;28;20046;-75
2023/08/11 06:41:25;;;;;;;7.53;4.97;;;;;;;19.98;100.00;101972.63;4965783;28;20059;-74
2023/08/11 06:43:53;;;;;;;6.57;4.53;;;;;;;20.15;100.00;101979.44;4932974;28;20042;-75
2023/08/11 06:46:21;;;;;;;5.35;4.13;;;;;;;20.30;100.00;101972.91;4981553;28;20054;-74
2023/08/11 06:48:48;;;;;;;7.32;4.70;;;;;;;20.36;100.00;101968.31;4961891;28;20488;-74
2023/08/11 06:51:16;;;;;;;7.25;4.38;;;;;;;20.38;100.00;101969.19;4967743;28;20042;-75
2023/08/11 06:53:43;;;;;;;5.68;4.60;;;;;;;20.43;100.00;101964.63;4988926;28;20065;-75
2023/08/11 06:56:11;;;;;;;9.50;4.35;;;;;;;20.46;100.00;101958.31;4969090;28;20515;-75
2023/08/11 06:58:38;;;;;;;6.07;4.85;;;;;;;20.44;100.00;101963.69;4951740;28;20057;-75
2023/08/11 07:01:06;;;;;;;6.28;4.60;;;;;;;20.42;100.00;101956.63;4980100;28;20049;-75
2023/08/11 07:03:33;;;;;;;6.50;4.72;;;;;;;20.42;100.00;101959.28;4969729;28;20073;-75
2023/08/11 07:06:02;;;;;;;4.80;4.38;;;;;;;20.44;100.00;101961.00;4965819;28;20047;-75
2023/08/11 07:08:29;;;;;;;9.45;4.85;;;;;;;20.46;100.00;101958.31;4967661;28;20050;-75
2023/08/11 07:10:56;;;;;;;7.88;4.30;;;;;;;20.48;100.00;101966.31;4970587;28;20035;-76
2023/08/11 07:13:24;;;;;;;8.73;4.53;;;;;;;20.50;100.00;101961.81;4928042;28;20887;-76
2023/08/11 07:15:54;;;;;;;5.00;4.10;;;;;;;20.52;100.00;101963.53;4966970;28;20054;-75
2023/08/11 07:18:22;;;;;;;6.00;3.80;;;;;;;20.56;100.00;101962.53;4966616;28;20081;-76
2023/08/11 07:20:50;;;;;;;4.50;4.07;;;;;;;20.67;100.00;101969.53;4961650;28;20492;-76
2023/08/11 07:23:17;;;;;;;4.50;3.80;;;;;;;20.75;100.00;101967.56;4967732;28;20047;-75
2023/08/11 07:25:45;;;;;;;7.35;3.90;;;;;;;20.88;100.00;101962.81;4971102;28;20045;-76
2023/08/11 07:28:12;;;;;;;4.40;3.97;;;;;;;21.01;100.00;101973.22;4952184;28;20042;-76
2023/08/11 07:30:40;;;;;;;5.60;3.60;;;;;;;21.12;100.00;101969.44;4957807;28;20046;-75
2023/08/11 07:33:08;;;;;;;9.52;4.03;;;;;;;21.26;100.00;101969.09;4988423;28;20053;-75
2023/08/11 07:35:35;;;;;;;6.32;4.03;;;;;;;21.36;100.00;101971.53;4970217;28;20053;-75
2023/08/11 07:38:03;;;;;;;6.38;3.83;;;;;;;21.46;100.00;101977.59;4959493;28;20807;-75
2023/08/11 07:40:31;;;;;;;4.22;3.60;;;;;;;21.54;100.00;101974.72;4986262;28;20042;-76
2023/08/11 07:42:59;;;;;;;4.93;3.47;;;;;;;21.64;100.00;101970.00;4970892;28;20054;-76
2023/08/11 07:45:27;;;;;;;7.63;4.00;;;;;;;21.67;100.00;101975.28;4943929;28;20061;-75
2023/08/11 07:47:54;;;;;;;6.32;3.60;;;;;;;21.68;100.00;101975.25;4999814;28;20046;-75
2023/08/11 07:50:21;;;;;;;4.75;3.67;;;;;;;21.71;100.00;101977.84;4967362;28;20051;-74
2023/08/11 07:52:49;;;;;;;5.53;3.90;;;;;;;21.72;100.00;101970.66;4964003;28;20043;-74
2023/08/11 07:55:16;;;;;;;5.63;3.97;;;;;;;21.73;100.00;101959.03;4950549;28;20065;-75
2023/08/11 07:57:44;;;;;;;4.47;3.40;;;;;;;21.77;100.00;101968.75;4971619;28;20054;-75
2023/08/11 08:00:16;;;;;;;7.15;3.50;;;;;;;21.79;100.00;101962.41;4942737;28;20061;-75
2023/08/11 08:02:44;;;;;;;5.70;3.53;;;;;;;21.83;100.00;101963.22;4968492;28;20059;-75
2023/08/11 08:05:12;;;;;;;5.03;3.53;;;;;;;21.86;100.00;101957.78;4973166;28;20061;-76
2023/08/11 08:07:40;;;;;;;4.15;3.72;;;;;;;21.91;100.00;101958.56;4974303;28;20043;-75
2023/08/11 08:10:11;;;;;;;4.15;3.80;;;;;;;21.97;100.00;101952.16;4965490;28;20503;-76
2023/08/11 08:12:39;;;;;;;6.60;3.20;;;;;;;22.03;100.00;101945.72;4975037;28;20050;-76
2023/08/11 08:15:09;;;;;;;3.95;3.60;;;;;;;22.09;100.00;101956.28;4953699;28;20066;-76
2023/08/11 08:17:38;;;;;;;5.93;4.40;;;;;;;22.13;100.00;101955.28;5007313;28;20041;-75
2023/08/11 08:20:09;;;;;;;8.20;4.25;;;;;;;22.17;100.00;101965.91;4971669;28;20058;-75
2023/08/11 08:22:37;;;;;;;6.35;3.88;;;;;;;22.21;100.00;101958.63;4971735;28;20547;-76
2023/08/11 08:25:08;;;;;;;7.15;3.78;;;;;;;22.25;100.00;101956.72;4962373;28;20043;-76
2023/08/11 08:27:37;;;;;;;5.40;4.03;;;;;;;22.31;100.00;101953.94;4972536;28;20432;-76
2023/08/11 08:30:11;;;;;;;9.18;4.30;;;;;;;22.35;100.00;101955.59;4971273;28;20046;-75
2023/08/11 08:32:40;;;;;;;5.18;4.20;;;;;;;22.37;100.00;101951.06;4940184;28;20061;-75
2023/08/11 08:35:09;;;;;;;6.75;4.32;;;;;;;22.41;100.00;101955.41;4973296;28;20042;-75
2023/08/11 08:37:37;;;;;;;6.35;4.22;;;;;;;22.44;100.00;101952.66;4971451;28;20069;-75
2023/08/11 08:40:07;;;;;;;5.85;4.00;;;;;;;22.48;100.00;101959.69;4968906;28;20400;-76
2023/08/11 08:42:34;;;;;;;6.45;4.47;;;;;;;22.51;100.00;101951.56;4967084;28;20582;-76
2023/08/11 08:45:03;;;;;;;5.65;4.60;;;;;;;22.55;100.00;101946.94;4972800;28;20504;-76
2023/08/11 08:47:32;;;;;;;4.85;4.35;;;;;;;22.60;100.00;101952.19;4929721;28;21582;-75
2023/08/11 08:50:01;;;;;;;5.72;4.65;;;;;;;22.63;100.00;101952.09;4973012;28;20046;-75
2023/08/11 08:52:30;;;;;;;7.00;4.50;;;;;;;22.67;100.00;101945.72;4970176;28;20100;-76
2023/08/11 08:54:57;;;;;;;7.00;3.88;;;;;;;22.71;100.00;101942.88;4973643;28;20051;-75
2023/08/11 08:57:25;;;;;;;4.15;3.72;;;;;;;22.76;100.00;101943.63;4963469;28;20053;-75
2023/08/11 08:59:55;;;;;;;4.07;3.50;;;;;;;22.81;100.00;101940.78;4972560;28;20046;-75
2023/08/11 09:02:27;;;;;;;7.20;4.55;;;;;;;22.85;100.00;101939.75;4929336;28;20058;-76
2023/08/11 09:04:55;;;;;;;5.13;4.55;;;;;;;22.92;100.00;101940.47;4978195;28;20058;-76
2023/08/11 09:07:22;;;;;;;5.85;4.90;;;;;;;22.99;100.00;101947.41;4970041;28;20057;-75
2023/08/11 09:09:50;;;;;;;5.53;3.28;;;;;;;23.05;100.00;101946.38;4973360;28;20050;-75
2023/08/11 09:12:18;;;;;;;6.45;3.80;;;;;;;23.12;100.00;101937.19;4957912;28;20055;-75
2023/08/11 09:14:45;;;;;;;11.10;4.32;;;;;;;23.16;100.00;101936.16;4973101;28;20046;-75
2023/08/11 09:17:13;;;;;;;8.15;3.67;;;;;;;23.20;100.00;101940.50;4986083;28;20492;-76
2023/08/11 09:19:44;;;;;;;4.57;3.80;;;;;;;23.26;100.00;101932.22;4972417;28;20073;-75
2023/08/11 09:22:11;;;;;;;6.47;4.13;;;;;;;23.31;100.00;101930.28;4970099;28;20046;-76
2023/08/11 09:24:40;;;;;;;5.95;3.63;;;;;;;23.36;100.00;101924.75;4954639;28;20062;-75
2023/08/11 09:27:09;;;;;;;7.43;3.83;;;;;;;23.43;100.00;101930.81;4982488;28;20491;-74
2023/08/11 09:29:37;;;;;;;7.07;3.72;;;;;;;23.51;100.00;101928.72;4968044;28;20479;-76
2023/08/11 09:32:04;;;;;;;6.60;2.85;;;;;;;23.59;100.00;101924.00;4986466;28;20057;-76
2023/08/11 09:34:32;;;;;;;8.35;4.00;;;;;;;23.68;100.00;101928.16;4928261;28;20129;-76
2023/08/11 09:36:59;;;;;;;8.45;3.63;;;;;;;23.75;100.00;101929.69;4982665;28;20046;-76
2023/08/11 09:39:29;;;;;;;10.45;3.80;;;;;;;23.84;100.00;101923.16;4968639;28;20046;-76
2023/08/11 09:41:56;;;;;;;5.00;3.50;;;;;;;23.93;100.00;101930.88;4972025;28;20046;-76
2023/08/11 09:44:23;;;;;;;9.05;3.33;;;;;;;24.00;100.00;101924.34;4961434;28;20046;-75
2023/08/11 09:46:51;;;;;;;6.00;3.80;;;;;;;24.06;100.00;101934.00;4968797;28;20089;-76
2023/08/11 09:49:19;;;;;;;5.60;3.50;;;;;;;24.12;100.00;101913.16;4976921;28;20488;-76
2023/08/11 09:51:49;;;;;;;8.85;3.10;;;;;;;24.19;100.00;101926.38;4911748;28;20047;-75
2023/08/11 09:54:19;;;;;;;4.85;3.22;;;;;;;24.26;100.00;101927.91;4965547;28;20061;-75
2023/08/11 09:56:48;;;;;;;4.80;3.45;;;;;;;24.34;100.00;101920.41;4967777;28;20046;-75
2023/08/11 09:59:19;;;;;;;3.95;2.92;;;;;;;24.44;100.00;101920.94;4958430;28;20584;-76
2023/08/11 10:01:47;;;;;;;4.40;2.90;;;;;;;24.49;99.87;101922.53;4952455;28;20081;-76
2023/08/11 10:04:19;;;;;;;9.98;2.72;;;;;;;24.55;100.00;101926.84;4963038;28;20427;-75
2023/08/11 10:06:50;;;;;;;5.47;3.08;;;;;;;24.61;99.27;101923.94;4931737;28;20385;-75
2023/08/11 10:09:22;;;;;;;;;;;;;;;24.64;96.57;101928.31;4997564;28;20138;-75
2023/08/11 10:11:50;;;;;;;7.32;3.20;;;;;;;24.67;99.96;101923.69;4984353;28;19922;-76
2023/08/11 10:14:20;;;;;;;7.80;2.92;;;;;;;24.71;99.54;101916.34;4957709;28;20066;-75
2023/08/11 10:16:48;;;;;;;4.13;2.23;;;;;;;24.76;99.71;101911.63;4985268;28;20550;-76
2023/08/11 10:19:17;;;;;;;3.80;2.78;;;;;;;24.86;98.79;101917.56;4966643;28;20787;-76
2023/08/11 10:21:44;;;;;;;5.00;2.90;;;;;;;24.90;97.94;101906.59;4968463;28;20050;-75
2023/08/11 10:24:13;;;;;;;3.55;2.17;;;;;;;24.97;98.98;101906.34;4924695;28;20043;-76
2023/08/11 10:26:42;;;;;;;2.80;2.60;;;;;;;25.06;99.16;101897.88;4982212;28;20054;-75
2023/08/11 10:29:11;;;;;;;3.60;2.10;;;;;;;25.13;97.96;101904.78;4981578;28;20047;-76
2023/08/11 10:31:56;;;;;;;3.55;2.30;;;;;;;25.21;96.55;101899.94;4964103;28;20054;-75
2023/08/11 10:34:25;;;;;;;2.45;1.90;;;;;;;25.28;96.35;101906.00;4966149;28;20187;-75
2023/08/11 10:36:54;;;;;;;3.53;2.10;;;;;;;25.36;95.37;101911.06;4983065;28;20408;-75
2023/08/11 10:39:22;;;;;;;3.75;2.53;;;;;;;25.37;93.46;101905.63;4928114;28;20046;-76
2023/08/11 10:41:50;;;;;;;4.70;2.50;;;;;;;25.42;93.44;101905.41;4970481;28;20421;-75
2023/08/11 10:44:26;;;;;;;4.38;2.50;;;;;;;25.50;94.43;101897.88;4955059;28;20047;-75
2023/08/11 10:46:56;;;;;;;3.30;2.30;;;;;;;25.59;94.14;101897.47;4982323;28;20050;-75
2023/08/11 10:49:40;;;;;;;3.58;2.65;;;;;;;25.71;92.75;101903.25;4968903;28;20515;-75
2023/08/11 10:52:07;;;;;;;4.47;2.58;;;;;;;25.80;91.73;101898.38;4968935;28;20058;-75
2023/08/11 10:54:35;;;;;;;7.25;2.40;;;;;;;25.90;91.86;101898.81;4946822;28;20054;-76
2023/08/11 10:57:03;;;;;;;2.75;1.88;;;;;;;25.95;90.54;101891.41;4970364;28;20057;-75
2023/08/11 10:59:33;;;;;;;5.68;2.38;;;;;;;25.95;89.53;101893.25;4968782;28;20054;-75
2023/08/11 11:02:01;;;;;;;4.32;3.90;;;;;;;25.91;88.94;101897.88;4973084;28;20053;-76
2023/08/11 11:04:32;;;;;;;3.55;2.15;;;;;;;25.90;88.76;101897.94;4968247;28;20057;-75
2023/08/11 11:07:01;;;;;;;6.43;2.83;;;;;;;25.93;90.36;101889.72;4970356;28;20050;-75
2023/08/11 11:09:29;;;;;;;12.38;2.13;;;;;;;26.02;89.63;101894.72;4930848;28;20038;-75
2023/08/11 11:11:57;;;;;;;2.22;1.88;;;;;;;26.08;87.75;101890.88;4987624;28;20046;-76
2023/08/11 11:14:24;;;;;;;2.80;2.15;;;;;;;26.08;87.07;101891.72;4986431;28;20050;-75
2023/08/11 11:16:58;;;;;;;4.95;1.92;;;;;;;26.08;85.93;101882.75;4971420;28;20058;-77
2023/08/11 11:19:27;;;;;;;;;;;;;;;26.05;83.12;101881.97;4969302;28;20042;-75
2023/08/11 11:21:54;;;;;;;2.75;1.85;;;;;;;26.05;87.32;101887.38;4976947;28;19922;-75
2023/08/11 11:24:22;;;;;;;7.57;2.10;;;;;;;26.02;87.00;101886.63;4959352;28;20058;-75